createdAt,value
2019-05-11T00:10:30.483Z,9.96
2019-05-11T00:25:38.258Z,9.96
2019-05-11T00:40:46.161Z,9.63
2019-05-11T00:55:53.331Z,9.61
2019-05-11T01:11:02.561Z,9.42
2019-05-11T01:26:10.404Z,9.28
2019-05-11T01:41:18.812Z,9.13
2019-05-11T01:56:25.827Z,9.36
2019-05-11T02:11:33.710Z,9.75
2019-05-11T02:26:41.211Z,9.59
2019-05-11T02:41:49.037Z,9.68
2019-05-11T02:56:57.239Z,9.61
2019-05-11T03:12:04.246Z,9.69
2019-05-11T03:27:12.325Z,9.85
2019-05-11T03:42:21.052Z,9.75
2019-05-11T03:57:28.064Z,9.94
2019-05-11T04:12:35.812Z,9.80
2019-05-11T04:27:45.292Z,10.87
2019-05-11T04:42:55.747Z,11.51
2019-05-11T04:58:01.123Z,11.55
2019-05-11T05:13:10.804Z,11.47
2019-05-11T05:28:17.902Z,11.54
2019-05-11T05:43:28.343Z,11.52
2019-05-11T05:58:33.194Z,11.66
2019-05-11T06:13:45.287Z,11.58
2019-05-11T06:28:49.326Z,11.62
2019-05-11T06:44:02.008Z,11.49
2019-05-11T06:59:05.262Z,12.23
2019-05-11T07:14:20.677Z,13.02
2019-05-11T07:29:19.057Z,14.09
2019-05-11T07:44:35.922Z,15.18
2019-05-11T07:59:35.120Z,15.75
2019-05-11T08:14:56.509Z,16.15
2019-05-11T08:29:51.042Z,16.76
2019-05-11T08:45:15.344Z,17.56
2019-05-11T09:00:09.482Z,18.33
2019-05-11T09:15:31.558Z,19.41
2019-05-11T09:30:25.488Z,19.41
2019-05-11T09:45:45.774Z,19.33
2019-05-11T10:00:43.677Z,19.84
2019-05-11T10:16:03.602Z,20.18
2019-05-11T10:31:00.127Z,19.85
2019-05-11T10:46:18.737Z,20.10
2019-05-11T11:01:15.012Z,20.42
2019-05-11T11:16:35.773Z,21.16
2019-05-11T11:31:29.899Z,21.89
2019-05-11T11:46:50.386Z,22.33
2019-05-11T12:01:48.539Z,22.37
2019-05-11T12:17:04.987Z,22.03
2019-05-11T12:32:05.007Z,22.04
2019-05-11T12:47:22.212Z,21.47
2019-05-11T13:02:22.560Z,21.39
2019-05-11T13:17:37.033Z,21.34
2019-05-11T13:32:39.899Z,21.58
2019-05-11T13:47:53.761Z,21.53
2019-05-11T14:02:58.586Z,21.34
2019-05-11T14:18:08.711Z,21.14
2019-05-11T14:33:14.620Z,20.82
2019-05-11T14:48:27.071Z,20.94
2019-05-11T15:03:32.861Z,20.60
2019-05-11T15:18:42.202Z,20.78
2019-05-11T15:33:49.001Z,20.80
2019-05-11T15:49:02.231Z,20.71
2019-05-11T16:04:05.962Z,20.48
2019-05-11T16:19:15.135Z,20.28
2019-05-11T16:34:21.612Z,20.24
2019-05-11T16:49:32.500Z,19.98
2019-05-11T17:04:40.047Z,19.40
2019-05-11T17:19:51.226Z,19.05
2019-05-11T17:34:59.386Z,18.61
2019-05-11T17:50:09.557Z,18.07
2019-05-11T18:05:17.840Z,17.27
2019-05-11T18:20:25.014Z,16.73
2019-05-11T18:35:31.924Z,16.06
2019-05-11T18:50:38.699Z,15.30
2019-05-11T19:05:48.246Z,14.99
2019-05-11T19:20:58.319Z,14.47
2019-05-11T19:36:07.783Z,13.97
2019-05-11T19:51:18.661Z,13.08
2019-05-11T20:06:28.076Z,12.46
2019-05-11T20:21:39.048Z,11.75
2019-05-11T20:36:58.528Z,10.89
2019-05-11T20:52:10.183Z,10.32
2019-05-11T21:07:19.840Z,9.98
2019-05-11T21:22:28.700Z,9.43
2019-05-11T21:37:39.239Z,9.40
2019-05-11T21:52:48.428Z,9.02
2019-05-11T22:07:58.273Z,8.67
2019-05-11T22:23:09.121Z,8.78
2019-05-11T22:38:15.724Z,9.02
2019-05-11T22:53:22.710Z,9.01
2019-05-11T23:08:29.717Z,8.88
2019-05-11T23:23:36.621Z,9.04
2019-05-11T23:38:43.319Z,9.38
2019-05-11T23:53:51.100Z,9.56
